Time;durP1;ratioP1;P1;durP2;ratioP2;P2;SDS_P1;SDS_P2;PMS_P1;PMS_P2;Temp;Humidity;BMP_temperature;BMP_pressure;BME280_temperature;BME280_humidity;BME280_pressure;Samples;Min_cycle;Max_cycle;Signal;HPM_P1;HPM_P2
2023/03/16 00:02:23;;;;;;;1.45;1.35;;;22.30;58.20;;;;;;5070188;28;20129;-80
2023/03/16 00:04:49;;;;;;;2.42;1.58;;;22.40;57.50;;;;;;5070686;28;20036;-78
2023/03/16 00:07:16;;;;;;;1.65;1.40;;;22.40;56.90;;;;;;5069324;28;20384;-78
2023/03/16 00:09:42;;;;;;;1.70;1.60;;;22.30;57.50;;;;;;5070848;28;20468;-77
2023/03/16 00:12:14;;;;;;;2.15;1.77;;;22.30;58.00;;;;;;5051262;28;20057;-78
2023/03/16 00:14:42;;;;;;;1.98;1.40;;;22.40;58.20;;;;;;5050555;28;20230;-77
2023/03/16 00:17:17;;;;;;;1.63;1.40;;;22.20;57.90;;;;;;5050486;28;20037;-78
2023/03/16 00:19:45;;;;;;;1.73;1.52;;;22.30;57.80;;;;;;5050788;28;20037;-78
2023/03/16 00:22:13;;;;;;;2.13;1.67;;;22.30;57.40;;;;;;5050527;28;20041;-78
2023/03/16 00:24:43;;;;;;;2.08;1.85;;;22.30;56.20;;;;;;5050508;28;20579;-78
2023/03/16 00:27:13;;;;;;;1.88;1.63;;;22.40;57.80;;;;;;5050315;28;20064;-77
2023/03/16 00:29:48;;;;;;;2.05;1.83;;;22.20;57.30;;;;;;5050517;28;20438;-78
2023/03/16 00:32:19;;;;;;;2.95;1.63;;;22.30;57.60;;;;;;5050262;28;20127;-78
2023/03/16 00:34:47;;;;;;;2.30;1.58;;;22.30;57.60;;;;;;5032514;28;20121;-78
2023/03/16 00:37:15;;;;;;;1.95;1.52;;;22.30;57.90;;;;;;5050223;28;20040;-77
2023/03/16 00:39:42;;;;;;;1.80;1.65;;;22.50;58.00;;;;;;5050256;28;20550;-77
2023/03/16 00:42:13;;;;;;;1.40;1.30;;;22.40;57.70;;;;;;5000654;28;20068;-77
2023/03/16 00:44:43;;;;;;;1.90;1.70;;;22.40;56.70;;;;;;5050456;28;20094;-77
2023/03/16 00:47:19;;;;;;;1.60;1.50;;;22.50;57.20;;;;;;5050398;28;20045;-77
2023/03/16 00:49:45;;;;;;;2.72;1.45;;;22.40;57.60;;;;;;5036202;28;20477;-77
2023/03/16 00:52:13;;;;;;;1.50;1.38;;;22.50;57.80;;;;;;5036096;28;20052;-78
2023/03/16 00:54:43;;;;;;;1.30;1.20;;;22.40;57.90;;;;;;5035781;28;20037;-77
2023/03/16 00:57:12;;;;;;;1.60;1.50;;;22.30;58.10;;;;;;5053907;28;20492;-77
2023/03/16 00:59:39;;;;;;;1.20;1.10;;;22.20;57.90;;;;;;5053771;28;20082;-77
2023/03/16 01:02:07;;;;;;;1.35;1.27;;;22.10;57.70;;;;;;5036013;28;20064;-77
2023/03/16 01:04:34;;;;;;;1.50;1.40;;;22.30;58.00;;;;;;5053307;28;20044;-77
2023/03/16 01:07:02;;;;;;;2.28;1.60;;;22.30;57.90;;;;;;5035672;28;20444;-77
2023/03/16 01:09:29;;;;;;;1.63;1.17;;;22.10;58.00;;;;;;5035802;28;20037;-78
2023/03/16 01:11:55;;;;;;;1.45;1.10;;;22.20;58.10;;;;;;5053613;28;20508;-77
2023/03/16 01:14:23;;;;;;;1.60;1.27;;;22.20;58.20;;;;;;5019117;28;20401;-77
2023/03/16 01:16:50;;;;;;;1.88;1.50;;;22.10;57.10;;;;;;5035450;28;20083;-77
2023/03/16 01:19:16;;;;;;;2.00;1.50;;;22.10;57.70;;;;;;5035478;28;20033;-78
2023/03/16 01:21:42;;;;;;;1.05;0.93;;;22.20;58.10;;;;;;5019034;28;20443;-77
2023/03/16 01:24:10;;;;;;;2.42;1.27;;;22.20;57.50;;;;;;5035580;28;20037;-78
2023/03/16 01:26:36;;;;;;;1.65;1.55;;;22.10;57.30;;;;;;5035107;28;20392;-77
2023/03/16 01:29:02;;;;;;;1.40;1.30;;;22.10;58.00;;;;;;5053200;28;20045;-77
2023/03/16 01:31:29;;;;;;;1.60;1.30;;;22.10;57.50;;;;;;5035106;28;20060;-78
2023/03/16 01:33:55;;;;;;;1.45;1.10;;;22.10;55.60;;;;;;5035023;28;20129;-77
2023/03/16 01:36:25;;;;;;;0.90;0.90;;;22.20;57.90;;;;;;5034972;28;20037;-77
2023/03/16 01:38:55;;;;;;;2.33;1.60;;;22.20;57.30;;;;;;5052908;28;20037;-77
2023/03/16 01:41:25;;;;;;;4.60;1.30;;;22.20;57.20;;;;;;5035230;28;20041;-77
2023/03/16 01:43:57;;;;;;;1.58;1.48;;;22.30;57.00;;;;;;5034958;28;20381;-78
2023/03/16 01:46:28;;;;;;;2.30;1.42;;;22.20;57.40;;;;;;5034582;28;20048;-77
2023/03/16 01:48:55;;;;;;;4.80;1.67;;;22.10;57.60;;;;;;5035203;28;20037;-77
2023/03/16 01:51:44;;;;;;;1.23;1.17;;;22.20;57.80;;;;;;5018251;28;20368;-78
2023/03/16 01:54:55;;;;;;;2.55;1.08;;;22.10;58.00;;;;;;5037224;28;20037;-77
2023/03/16 01:57:28;;;;;;;1.65;1.55;;;22.10;58.20;;;;;;4936178;29;20118;-77
2023/03/16 02:00:17;;;;;;;2.35;1.58;;;21.90;58.10;;;;;;4935603;28;20050;-77
2023/03/16 02:02:57;;;;;;;1.83;1.60;;;22.00;58.00;;;;;;4938952;28;20079;-78
2023/03/16 02:05:43;;;;;;;1.58;1.48;;;22.00;58.20;;;;;;4955392;28;20411;-77
2023/03/16 02:08:13;;;;;;;1.55;1.38;;;21.90;58.20;;;;;;4971219;28;20043;-78
2023/03/16 02:10:39;;;;;;;1.90;1.40;;;21.90;57.60;;;;;;4968073;28;20057;-77
2023/03/16 02:13:06;;;;;;;1.02;1.02;;;21.90;58.00;;;;;;4993907;28;20136;-77
2023/03/16 02:15:34;;;;;;;1.60;1.48;;;21.90;58.30;;;;;;4993616;28;20058;-77
2023/03/16 02:18:01;;;;;;;1.95;1.50;;;21.90;57.60;;;;;;4993811;28;20052;-78
2023/03/16 02:20:36;;;;;;;1.27;1.17;;;21.90;57.30;;;;;;5010036;28;20599;-77
2023/03/16 02:23:17;;;;;;;1.55;1.35;;;22.00;58.10;;;;;;4993861;28;20041;-77
2023/03/16 02:25:52;;;;;;;1.73;1.40;;;22.00;58.20;;;;;;4993629;28;20353;-78
2023/03/16 02:28:30;;;;;;;1.90;1.38;;;22.00;58.10;;;;;;5037035;28;20519;-77
2023/03/16 02:30:56;;;;;;;1.27;1.17;;;22.00;58.10;;;;;;5070782;28;20039;-77
2023/03/16 02:33:24;;;;;;;1.55;1.35;;;22.00;58.10;;;;;;5070776;28;20446;-78
2023/03/16 02:35:50;;;;;;;1.60;1.50;;;22.10;57.50;;;;;;5070577;28;20043;-77
2023/03/16 02:38:16;;;;;;;1.25;1.15;;;21.90;58.20;;;;;;5070652;28;20037;-78
2023/03/16 02:41:09;;;;;;;1.48;1.38;;;21.90;58.30;;;;;;5070301;28;20070;-77
2023/03/16 02:43:38;;;;;;;1.10;1.00;;;21.90;58.40;;;;;;5070698;28;20037;-78
2023/03/16 02:46:34;;;;;;;2.42;1.08;;;21.80;58.30;;;;;;5029282;28;20076;-78
2023/03/16 02:49:24;;;;;;;0.80;0.80;;;21.90;58.00;;;;;;5029312;28;20045;-78
2023/03/16 02:51:50;;;;;;;1.10;1.00;;;21.80;58.10;;;;;;5012947;28;20117;-78
2023/03/16 02:54:18;;;;;;;1.02;1.02;;;21.90;58.20;;;;;;5012716;28;20147;-78
2023/03/16 02:56:44;;;;;;;0.98;0.98;;;21.80;57.30;;;;;;5029219;28;20111;-78
2023/03/16 02:59:11;;;;;;;1.30;1.20;;;21.80;57.70;;;;;;5012737;28;20041;-78
2023/03/16 03:01:37;;;;;;;1.02;0.90;;;21.80;58.00;;;;;;5012671;28;20041;-78
2023/03/16 03:04:05;;;;;;;1.75;1.02;;;21.70;58.10;;;;;;5028927;28;20489;-78
2023/03/16 03:06:31;;;;;;;0.90;0.90;;;21.60;58.20;;;;;;5012503;28;20927;-78
2023/03/16 03:08:59;;;;;;;1.20;1.10;;;21.70;58.20;;;;;;5012577;28;20122;-78
2023/03/16 03:11:25;;;;;;;1.15;1.05;;;21.60;58.10;;;;;;5011595;28;20080;-79
2023/03/16 03:13:52;;;;;;;1.67;1.00;;;21.60;58.30;;;;;;5012413;28;20073;-78
2023/03/16 03:16:21;;;;;;;0.77;0.77;;;21.70;58.20;;;;;;4996518;28;20392;-78
2023/03/16 03:18:48;;;;;;;1.88;0.93;;;21.70;58.30;;;;;;4996333;28;20044;-78
2023/03/16 03:21:15;;;;;;;1.00;0.98;;;21.60;58.20;;;;;;5028817;28;20041;-78
2023/03/16 03:23:45;;;;;;;1.17;0.80;;;21.80;58.40;;;;;;5049295;28;20064;-78
2023/03/16 03:26:14;;;;;;;1.00;1.00;;;21.50;58.10;;;;;;5069780;28;20040;-78
2023/03/16 03:28:41;;;;;;;0.70;0.70;;;21.70;58.20;;;;;;5069869;28;20071;-78
2023/03/16 03:31:13;;;;;;;0.98;0.90;;;21.60;57.80;;;;;;5070120;28;20454;-78
2023/03/16 03:33:39;;;;;;;1.00;0.90;;;21.50;57.90;;;;;;5071136;28;20116;-78
2023/03/16 03:36:06;;;;;;;1.02;1.02;;;21.50;57.90;;;;;;5069515;28;20048;-77
2023/03/16 03:38:35;;;;;;;1.13;1.00;;;21.70;58.10;;;;;;5048368;28;20099;-78
2023/03/16 03:41:01;;;;;;;0.93;0.80;;;21.60;57.90;;;;;;5014952;28;20071;-78
2023/03/16 03:43:31;;;;;;;5.68;4.13;;;21.70;57.90;;;;;;5031765;28;20106;-77
2023/03/16 03:45:59;;;;;;;3.80;3.20;;;21.70;57.90;;;;;;5031576;28;20037;-77
2023/03/16 03:48:26;;;;;;;2.55;1.85;;;21.60;57.30;;;;;;5031861;28;20175;-77
2023/03/16 03:50:52;;;;;;;3.53;1.85;;;21.80;57.30;;;;;;5031864;28;20082;-77
2023/03/16 03:53:35;;;;;;;1.20;1.10;;;21.80;57.50;;;;;;5031652;28;20045;-77
2023/03/16 03:56:25;;;;;;;1.10;1.00;;;21.80;57.20;;;;;;5046002;28;20481;-77
2023/03/16 03:58:51;;;;;;;1.20;1.13;;;21.80;57.20;;;;;;5015128;28;20556;-76
2023/03/16 04:01:49;;;;;;;1.35;1.25;;;21.80;57.30;;;;;;5066873;28;20043;-77
2023/03/16 04:04:15;;;;;;;1.35;1.25;;;21.70;57.30;;;;;;5051542;28;20481;-77
2023/03/16 04:06:41;;;;;;;1.13;1.02;;;21.80;57.40;;;;;;5051132;28;20569;-77
2023/03/16 04:09:07;;;;;;;2.17;1.60;;;21.80;57.10;;;;;;5061255;28;20073;-76
2023/03/16 04:11:33;;;;;;;1.35;1.00;;;21.70;57.30;;;;;;5069558;28;20053;-77
2023/03/16 04:14:00;;;;;;;0.70;0.70;;;21.60;56.70;;;;;;5032754;28;20037;-77
2023/03/16 04:16:26;;;;;;;1.15;1.00;;;21.70;57.20;;;;;;5032489;28;20037;-77
2023/03/16 04:18:54;;;;;;;0.95;0.88;;;21.60;57.40;;;;;;5032616;28;20357;-77
2023/03/16 04:21:22;;;;;;;0.75;0.75;;;21.60;57.50;;;;;;5050914;28;20064;-77
2023/03/16 04:23:53;;;;;;;0.73;0.73;;;21.70;57.50;;;;;;5036627;28;20037;-77
2023/03/16 04:26:20;;;;;;;0.90;0.90;;;21.70;57.20;;;;;;5036161;28;20040;-77
2023/03/16 04:28:47;;;;;;;0.80;0.80;;;21.60;57.50;;;;;;5036421;28;20464;-77
2023/03/16 04:31:16;;;;;;;0.75;0.70;;;21.50;57.60;;;;;;5036360;28;20112;-77
2023/03/16 04:33:45;;;;;;;1.00;1.00;;;21.60;56.80;;;;;;5036320;28;20029;-77
2023/03/16 04:36:11;;;;;;;1.00;1.00;;;21.60;57.20;;;;;;5036254;28;20060;-77
2023/03/16 04:38:38;;;;;;;1.20;1.10;;;21.70;55.60;;;;;;5036217;28;20036;-77
2023/03/16 04:41:05;;;;;;;1.05;0.95;;;21.80;57.10;;;;;;5036220;28;20544;-77
2023/03/16 04:43:36;;;;;;;1.25;1.00;;;21.90;57.00;;;;;;5036291;28;20033;-77
2023/03/16 04:46:11;;;;;;;1.67;1.10;;;21.90;57.00;;;;;;5036252;28;20024;-77
2023/03/16 04:48:38;;;;;;;0.95;0.95;;;21.80;56.10;;;;;;5019685;28;20028;-77
2023/03/16 04:51:05;;;;;;;3.13;1.27;;;21.80;57.30;;;;;;5036083;28;20071;-77
2023/03/16 04:53:34;;;;;;;0.95;0.95;;;21.80;57.20;;;;;;5039977;28;20128;-74
2023/03/16 04:56:07;;;;;;;0.88;0.88;;;21.60;56.00;;;;;;5035719;28;20496;-77
2023/03/16 04:58:34;;;;;;;0.85;0.85;;;21.60;55.30;;;;;;5035748;28;20029;-78
2023/03/16 05:01:04;;;;;;;0.95;0.90;;;21.80;54.60;;;;;;5035961;28;20044;-77
2023/03/16 05:03:31;;;;;;;1.42;1.33;;;21.70;54.80;;;;;;5035800;28;20135;-78
2023/03/16 05:05:57;;;;;;;1.40;1.30;;;21.60;57.00;;;;;;5053644;28;20127;-76
2023/03/16 05:08:26;;;;;;;1.42;1.20;;;21.60;57.20;;;;;;5019192;28;20150;-76
2023/03/16 05:10:57;;;;;;;1.20;1.13;;;21.60;55.60;;;;;;5049508;28;20109;-78
2023/03/16 05:13:24;;;;;;;0.90;0.70;;;21.60;55.60;;;;;;5072435;28;20044;-76
2023/03/16 05:15:54;;;;;;;3.55;0.95;;;21.70;59.30;;;;;;5072324;28;20040;-76
2023/03/16 05:18:32;;;;;;;1.00;1.00;;;22.00;59.80;;;;;;5072084;28;20029;-76
2023/03/16 05:20:59;;;;;;;0.90;0.90;;;22.60;58.90;;;;;;5072031;28;20074;-75
2023/03/16 05:23:31;;;;;;;;;;;22.50;58.00;;;;;;5073726;28;20028;-78
2023/03/16 05:26:01;;;;;;;0.82;0.82;;;22.60;56.80;;;;;;5055985;28;19999;-78
2023/03/16 05:28:30;;;;;;;3.95;1.65;;;22.70;54.40;;;;;;5071853;28;20481;-76
2023/03/16 05:31:02;;;;;;;1.20;1.10;;;22.50;52.50;;;;;;5055727;28;20389;-76
2023/03/16 05:33:30;;;;;;;1.13;1.05;;;22.60;50.60;;;;;;5071012;28;20625;-77
2023/03/16 05:36:03;;;;;;;1.50;1.40;;;22.60;49.90;;;;;;5055179;28;20072;-75
2023/03/16 05:38:30;;;;;;;1.70;1.50;;;22.40;49.30;;;;;;5071866;28;20446;-75
2023/03/16 05:41:00;;;;;;;1.40;1.30;;;22.40;49.60;;;;;;5071727;28;20040;-74
2023/03/16 05:43:52;;;;;;;1.48;1.23;;;22.20;49.70;;;;;;5050264;28;20136;-74
2023/03/16 05:46:20;;;;;;;2.15;1.83;;;22.20;50.30;;;;;;5033935;28;20103;-75
2023/03/16 05:48:47;;;;;;;1.67;1.35;;;22.20;50.90;;;;;;5033802;28;20374;-75
2023/03/16 05:51:15;;;;;;;1.90;1.35;;;22.10;51.00;;;;;;5033841;28;20116;-78
2023/03/16 05:53:45;;;;;;;1.25;1.15;;;22.10;52.20;;;;;;5016925;28;20049;-75
2023/03/16 05:56:16;;;;;;;2.97;1.38;;;22.00;51.90;;;;;;5041001;28;20134;-74
2023/03/16 05:58:45;;;;;;;1.67;1.52;;;22.00;52.90;;;;;;5050030;28;20164;-74
2023/03/16 06:01:12;;;;;;;4.47;1.50;;;22.20;53.00;;;;;;5050158;28;20135;-75
2023/03/16 06:03:40;;;;;;;4.57;1.38;;;22.20;53.00;;;;;;5044216;28;20040;-77
2023/03/16 06:06:09;;;;;;;1.42;1.30;;;22.20;52.60;;;;;;5053317;28;20036;-76
2023/03/16 06:08:50;;;;;;;1.10;1.10;;;22.20;57.90;;;;;;5053010;28;20100;-78
2023/03/16 06:11:18;;;;;;;2.72;1.40;;;22.60;59.80;;;;;;5069598;28;20452;-74
2023/03/16 06:13:45;;;;;;;1.23;1.13;;;23.00;60.80;;;;;;5069547;28;20450;-76
2023/03/16 06:16:13;;;;;;;1.83;1.00;;;23.30;62.20;;;;;;5036641;28;20037;-75
2023/03/16 06:18:40;;;;;;;1.38;1.27;;;23.50;65.70;;;;;;5053044;28;20048;-74
2023/03/16 06:21:07;;;;;;;2.35;1.30;;;23.90;72.60;;;;;;5094770;28;20048;-75
2023/03/16 06:23:34;;;;;;;1.40;0.95;;;23.90;76.60;;;;;;5091143;28;20508;-76
2023/03/16 06:26:00;;;;;;;1.08;1.02;;;24.10;75.90;;;;;;5090977;28;20040;-77
2023/03/16 06:28:29;;;;;;;3.25;1.30;;;24.00;77.20;;;;;;5092260;28;20032;-75
2023/03/16 06:30:57;;;;;;;1.27;1.20;;;24.00;80.80;;;;;;5091203;28;20040;-77
2023/03/16 06:33:26;;;;;;;1.60;1.50;;;24.10;83.80;;;;;;5091089;28;20032;-77
2023/03/16 06:35:53;;;;;;;2.40;2.22;;;24.30;84.80;;;;;;5090801;28;20036;-79
2023/03/16 06:38:32;;;;;;;3.75;3.20;;;24.30;81.40;;;;;;5090650;28;20097;-77
2023/03/16 06:41:22;;;;;;;4.95;4.15;;;24.10;73.90;;;;;;5029251;28;20045;-76
2023/03/16 06:43:48;;;;;;;6.03;4.88;;;24.10;63.50;;;;;;5029470;28;20037;-77
2023/03/16 06:46:14;;;;;;;2.17;1.98;;;23.90;51.20;;;;;;5029054;28;20037;-75
2023/03/16 06:48:40;;;;;;;2.35;1.95;;;23.60;49.50;;;;;;5029359;28;20033;-75
2023/03/16 06:51:08;;;;;;;1.92;1.70;;;23.40;51.70;;;;;;5012831;28;20132;-82
2023/03/16 06:53:35;;;;;;;2.67;1.60;;;23.50;57.60;;;;;;5029525;28;20049;-83
2023/03/16 06:56:01;;;;;;;1.38;1.30;;;23.50;58.90;;;;;;5029702;28;20096;-80
2023/03/16 06:58:30;;;;;;;2.22;1.60;;;23.60;59.30;;;;;;5029300;28;20556;-83
2023/03/16 07:01:00;;;;;;;4.40;1.55;;;23.60;58.80;;;;;;5029275;28;20029;-82
2023/03/16 07:03:26;;;;;;;1.60;1.50;;;23.50;56.90;;;;;;5009089;28;20052;-76
2023/03/16 07:05:58;;;;;;;1.65;1.50;;;23.30;58.40;;;;;;4992978;28;20048;-73
2023/03/16 07:08:24;;;;;;;1.88;1.55;;;23.40;59.10;;;;;;4992906;28;20064;-73
2023/03/16 07:10:51;;;;;;;2.50;1.40;;;23.30;58.50;;;;;;5008950;28;20061;-74
2023/03/16 07:13:18;;;;;;;1.52;1.42;;;23.40;55.10;;;;;;5009120;28;20058;-81
2023/03/16 07:15:44;;;;;;;1.50;1.40;;;23.40;48.90;;;;;;4992838;28;20096;-77
2023/03/16 07:18:13;;;;;;;1.73;1.23;;;23.10;49.10;;;;;;5034544;28;20056;-81
2023/03/16 07:20:40;;;;;;;1.50;1.40;;;22.90;51.90;;;;;;5070335;28;20036;-82
2023/03/16 07:23:07;;;;;;;1.40;1.30;;;22.90;46.70;;;;;;5028796;28;20085;-81
2023/03/16 07:25:34;;;;;;;1.50;1.40;;;22.90;52.90;;;;;;5029102;28;20047;-82
2023/03/16 07:28:00;;;;;;;2.45;1.60;;;22.90;53.20;;;;;;5012397;28;20060;-83
2023/03/16 07:30:32;;;;;;;1.48;1.13;;;22.80;48.90;;;;;;5012484;28;20087;-81
2023/03/16 07:33:00;;;;;;;1.65;1.38;;;22.70;48.50;;;;;;5028731;28;20065;-79
2023/03/16 07:35:27;;;;;;;1.20;1.10;;;22.60;51.20;;;;;;5012491;28;20037;-82
2023/03/16 07:37:54;;;;;;;1.65;1.40;;;22.60;51.50;;;;;;5015129;28;20037;-80
2023/03/16 07:40:21;;;;;;;4.53;1.40;;;22.70;50.40;;;;;;5032415;28;20039;-78
2023/03/16 07:42:47;;;;;;;1.25;1.15;;;22.50;50.20;;;;;;5031961;28;20124;-81
2023/03/16 07:45:18;;;;;;;2.50;1.40;;;22.50;51.90;;;;;;5015755;28;20044;-79
2023/03/16 07:47:45;;;;;;;2.00;1.33;;;22.30;48.10;;;;;;5031913;28;20171;-85
2023/03/16 07:50:37;;;;;;;2.42;1.38;;;22.30;49.40;;;;;;4989584;28;20054;-82
2023/03/16 07:53:04;;;;;;;1.15;1.00;;;22.10;51.20;;;;;;4988055;28;20058;-80
2023/03/16 07:55:31;;;;;;;1.85;1.10;;;22.20;54.10;;;;;;4973068;28;20058;-78
2023/03/16 07:57:58;;;;;;;2.08;1.48;;;22.10;51.90;;;;;;4988372;28;20038;-83
2023/03/16 08:00:30;;;;;;;2.67;1.88;;;22.00;52.90;;;;;;4973695;28;20871;-80
2023/03/16 08:02:56;;;;;;;1.98;1.60;;;22.00;54.20;;;;;;4963231;28;20490;-85
2023/03/16 08:05:22;;;;;;;1.60;1.35;;;22.00;51.70;;;;;;4957758;28;20051;-84
2023/03/16 08:07:56;;;;;;;1.00;0.90;;;22.00;54.70;;;;;;4957274;28;20081;-80
2023/03/16 08:10:24;;;;;;;1.83;1.50;;;22.20;56.40;;;;;;4957104;28;20050;-83
2023/03/16 08:12:58;;;;;;;1.70;1.45;;;22.20;53.70;;;;;;4971606;28;20077;-79
2023/03/16 08:15:24;;;;;;;1.15;1.10;;;22.20;55.80;;;;;;4976607;28;20051;-82
2023/03/16 08:17:58;;;;;;;2.00;1.17;;;22.10;55.40;;;;;;4977441;28;20081;-79
2023/03/16 08:20:25;;;;;;;1.58;1.20;;;22.20;55.30;;;;;;4976750;28;20134;-81
2023/03/16 08:22:52;;;;;;;1.73;1.33;;;22.20;54.10;;;;;;4976911;28;20038;-79
2023/03/16 08:25:24;;;;;;;1.73;1.05;;;22.10;55.90;;;;;;4976604;28;20175;-73
2023/03/16 08:28:01;;;;;;;1.40;1.20;;;22.20;56.00;;;;;;5021898;28;20095;-74
2023/03/16 08:30:29;;;;;;;2.80;1.50;;;22.50;56.40;;;;;;5034841;28;20091;-74
2023/03/16 08:33:19;;;;;;;1.67;1.33;;;22.50;56.20;;;;;;5059712;28;20036;-73
2023/03/16 08:35:46;;;;;;;2.17;1.17;;;22.40;54.30;;;;;;5073031;28;20477;-73
2023/03/16 08:38:14;;;;;;;2.42;1.50;;;22.50;55.80;;;;;;5072954;28;20395;-79
2023/03/16 08:40:46;;;;;;;1.55;1.30;;;23.10;55.30;;;;;;5073162;28;20043;-79
2023/03/16 08:43:16;;;;;;;2.33;1.50;;;23.40;51.50;;;;;;5073141;28;20484;-80
2023/03/16 08:45:47;;;;;;;1.40;1.30;;;23.70;52.80;;;;;;5073167;28;20036;-83
2023/03/16 08:48:15;;;;;;;2.30;1.70;;;23.70;53.70;;;;;;5072943;28;20070;-81
2023/03/16 08:50:44;;;;;;;1.75;1.42;;;23.70;50.40;;;;;;5072879;28;20082;-78
2023/03/16 08:53:12;;;;;;;1.33;1.23;;;23.60;54.40;;;;;;5072783;28;20041;-79
2023/03/16 08:55:40;;;;;;;0.70;0.70;;;23.30;52.40;;;;;;5074121;28;20041;-78
2023/03/16 08:58:07;;;;;;;2.42;1.58;;;23.20;51.40;;;;;;5073808;28;20040;-85
2023/03/16 09:00:34;;;;;;;0.90;0.90;;;23.20;54.00;;;;;;5074468;28;20472;-82
2023/03/16 09:03:01;;;;;;;1.20;0.90;;;23.10;52.50;;;;;;5071537;28;20048;-74
2023/03/16 09:05:27;;;;;;;1.77;1.45;;;23.10;54.30;;;;;;5073977;28;20040;-79
2023/03/16 09:07:54;;;;;;;2.00;1.30;;;23.10;52.00;;;;;;5071421;28;20188;-77
2023/03/16 09:10:21;;;;;;;0.80;0.80;;;23.10;51.60;;;;;;5069296;28;20063;-77
2023/03/16 09:12:49;;;;;;;1.30;0.80;;;23.00;53.90;;;;;;5053906;28;20049;-78
2023/03/16 09:15:15;;;;;;;1.05;1.00;;;23.00;58.90;;;;;;5053945;28;20025;-85
2023/03/16 09:17:43;;;;;;;1.00;0.98;;;23.00;60.80;;;;;;5053934;28;20040;-80
2023/03/16 09:20:11;;;;;;;1.98;0.90;;;23.00;54.00;;;;;;5035998;28;20021;-80
2023/03/16 09:22:37;;;;;;;0.80;0.80;;;23.00;57.60;;;;;;5053369;28;20057;-80
2023/03/16 09:25:10;;;;;;;1.00;1.00;;;22.90;57.50;;;;;;5053476;28;20123;-79
2023/03/16 09:27:37;;;;;;;1.25;0.80;;;23.00;56.00;;;;;;5053891;28;20024;-77
2023/03/16 09:30:04;;;;;;;0.75;0.75;;;23.00;57.00;;;;;;5053417;28;20029;-81
2023/03/16 09:32:32;;;;;;;1.08;1.08;;;22.90;53.60;;;;;;5035729;28;20041;-79
2023/03/16 09:34:58;;;;;;;0.90;0.90;;;23.00;62.60;;;;;;5035554;28;20036;-78
2023/03/16 09:37:26;;;;;;;2.53;1.30;;;23.30;52.90;;;;;;5053221;28;20425;-78
2023/03/16 09:39:52;;;;;;;1.23;1.13;;;23.60;45.20;;;;;;5053252;28;20488;-76
2023/03/16 09:42:40;;;;;;;3.47;1.30;;;23.80;53.30;;;;;;5053453;28;20120;-77
2023/03/16 09:45:24;;;;;;;1.67;0.90;;;23.80;53.40;;;;;;5053054;28;20033;-82
2023/03/16 09:47:56;;;;;;;2.67;0.88;;;23.70;57.20;;;;;;5053114;28;20029;-81
2023/03/16 09:50:33;;;;;;;1.23;1.08;;;23.60;54.60;;;;;;5055875;28;20461;-82
2023/03/16 09:53:11;;;;;;;4.00;1.10;;;23.50;56.60;;;;;;5017659;28;20049;-81
2023/03/16 09:55:39;;;;;;;0.70;0.70;;;23.60;58.60;;;;;;5055281;28;20048;-78
2023/03/16 09:58:32;;;;;;;1.20;1.10;;;23.50;57.70;;;;;;5052880;28;20072;-77
2023/03/16 10:01:13;;;;;;;5.40;1.17;;;23.70;48.20;;;;;;4991141;28;20045;-75
2023/03/16 10:03:44;;;;;;;4.03;1.00;;;23.90;49.20;;;;;;4992171;28;20049;-74
2023/03/16 10:06:15;;;;;;;4.93;4.50;;;24.10;49.70;;;;;;4990774;28;20050;-78
2023/03/16 10:08:50;;;;;;;1.15;0.98;;;24.20;52.60;;;;;;4990573;28;20047;-80
2023/03/16 10:11:42;;;;;;;1.52;1.30;;;24.50;52.50;;;;;;4974366;28;20047;-81
2023/03/16 10:14:29;;;;;;;1.38;1.23;;;24.50;54.30;;;;;;4990996;28;20494;-83
2023/03/16 10:17:03;;;;;;;1.60;1.13;;;24.40;54.00;;;;;;4990901;28;20117;-78
2023/03/16 10:19:36;;;;;;;0.90;0.90;;;24.30;56.00;;;;;;4990306;28;20050;-78
2023/03/16 10:22:14;;;;;;;0.95;0.90;;;24.20;55.40;;;;;;4990634;28;20041;-82
2023/03/16 10:24:52;;;;;;;3.72;1.00;;;24.20;57.10;;;;;;4990646;28;20108;-79
2023/03/16 10:27:27;;;;;;;0.80;0.80;;;24.30;57.40;;;;;;4990292;28;20078;-78
2023/03/16 10:29:54;;;;;;;1.63;1.10;;;24.30;56.30;;;;;;4990360;28;20046;-82
2023/03/16 10:32:19;;;;;;;0.80;0.77;;;24.30;59.00;;;;;;4990217;28;20100;-81
2023/03/16 10:35:06;;;;;;;5.20;1.08;;;24.20;56.60;;;;;;4974397;28;20097;-78
2023/03/16 10:37:32;;;;;;;2.20;1.30;;;24.10;57.20;;;;;;5014876;28;20041;-85
2023/03/16 10:39:59;;;;;;;1.05;0.90;;;24.30;57.40;;;;;;5052083;28;20769;-82
2023/03/16 10:42:26;;;;;;;1.00;0.90;;;24.00;55.90;;;;;;5052016;28;20678;-81
2023/03/16 10:44:59;;;;;;;2.20;1.10;;;24.90;58.80;;;;;;5034313;28;20123;-76
2023/03/16 10:47:30;;;;;;;1.23;0.98;;;26.00;62.00;;;;;;5068745;28;20029;-76
2023/03/16 10:49:57;;;;;;;1.17;1.10;;;26.00;51.70;;;;;;5071428;28;20037;-77
2023/03/16 10:52:28;;;;;;;1.17;1.17;;;25.90;55.30;;;;;;5071546;28;20033;-77
2023/03/16 10:55:09;;;;;;;3.15;1.10;;;25.70;55.60;;;;;;5072415;28;20036;-81
2023/03/16 10:57:40;;;;;;;1.55;1.45;;;25.50;52.60;;;;;;5053984;28;20020;-81
2023/03/16 11:00:13;;;;;;;1.10;0.93;;;25.60;53.80;;;;;;5053901;28;20036;-81
2023/03/16 11:02:39;;;;;;;1.50;0.90;;;25.90;54.40;;;;;;5048306;28;20040;-81
2023/03/16 11:05:17;;;;;;;2.42;0.75;;;25.80;54.30;;;;;;5071499;28;20063;-80
2023/03/16 11:07:58;;;;;;;4.28;0.77;;;25.60;53.70;;;;;;5071589;28;20051;-79
2023/03/16 11:10:32;;;;;;;0.90;0.90;;;25.60;55.60;;;;;;5058494;28;20059;-79
2023/03/16 11:13:19;;;;;;;1.65;1.08;;;25.40;55.90;;;;;;5051636;28;20053;-79
2023/03/16 11:15:57;;;;;;;1.00;1.00;;;25.30;55.40;;;;;;5051246;28;20032;-80
2023/03/16 11:18:42;;;;;;;0.80;0.80;;;25.20;56.80;;;;;;5051673;28;20041;-80
2023/03/16 11:21:21;;;;;;;2.40;0.85;;;25.10;57.30;;;;;;5051287;28;20044;-79
2023/03/16 11:23:53;;;;;;;0.80;0.80;;;25.10;57.60;;;;;;5033373;28;20040;-77
2023/03/16 11:26:32;;;;;;;0.73;0.70;;;25.10;60.30;;;;;;5051033;28;20033;-81
2023/03/16 11:29:16;;;;;;;1.00;0.90;;;25.50;61.30;;;;;;5051068;28;20039;-78
2023/03/16 11:31:48;;;;;;;0.90;0.90;;;25.80;63.60;;;;;;5050444;28;20495;-81
2023/03/16 11:34:17;;;;;;;1.13;0.80;;;26.10;63.90;;;;;;5051416;28;20045;-79
2023/03/16 11:36:49;;;;;;;2.53;1.20;;;26.20;62.80;;;;;;5051304;28;20125;-78
2023/03/16 11:39:40;;;;;;;48.38;18.67;;;26.20;63.70;;;;;;5051402;28;20067;-80
2023/03/16 11:42:35;;;;;;;4.38;2.45;;;26.30;57.70;;;;;;5033677;28;20036;-79
2023/03/16 11:45:16;;;;;;;2.53;1.40;;;25.90;56.60;;;;;;4950845;28;20045;-79
2023/03/16 11:48:01;;;;;;;0.90;0.90;;;25.80;57.10;;;;;;4934351;28;20054;-78
2023/03/16 11:50:52;;;;;;;0.90;0.90;;;25.60;55.90;;;;;;4953915;28;20074;-78
2023/03/16 11:53:46;;;;;;;2.58;1.58;;;25.50;56.00;;;;;;4970115;28;20042;-78
2023/03/16 11:56:24;;;;;;;0.88;0.88;;;25.30;57.90;;;;;;4959954;28;20043;-76
2023/03/16 11:59:18;;;;;;;1.33;1.23;;;25.20;56.90;;;;;;4950554;29;20043;-77
2023/03/16 12:01:53;;;;;;;1.75;1.10;;;25.10;56.20;;;;;;4950558;29;20086;-78
2023/03/16 12:04:40;;;;;;;1.30;1.20;;;25.00;56.00;;;;;;4950354;29;20094;-79
2023/03/16 12:07:20;;;;;;;1.52;1.42;;;25.00;58.20;;;;;;4950641;29;20031;-78
2023/03/16 12:10:02;;;;;;;1.10;1.00;;;25.00;57.70;;;;;;4950266;29;20179;-77
2023/03/16 12:12:57;;;;;;;1.00;0.93;;;25.00;56.80;;;;;;4950148;29;20059;-77
2023/03/16 12:15:37;;;;;;;1.30;1.20;;;25.00;58.50;;;;;;4950320;29;20066;-78
2023/03/16 12:18:36;;;;;;;1.65;1.13;;;25.00;58.80;;;;;;4950041;29;20027;-77
2023/03/16 12:21:06;;;;;;;2.00;1.65;;;24.80;58.80;;;;;;4876411;29;20041;-76
2023/03/16 12:24:12;;;;;;;1.60;1.30;;;24.80;59.00;;;;;;4930911;29;20046;-76
2023/03/16 12:26:41;;;;;;;1.77;1.40;;;24.60;56.80;;;;;;4874462;29;20037;-78
2023/03/16 12:29:32;;;;;;;1.30;1.10;;;24.70;59.20;;;;;;4859090;29;20073;-79
2023/03/16 12:32:21;;;;;;;1.00;0.98;;;24.60;59.20;;;;;;4858953;29;20564;-82
2023/03/16 12:34:53;;;;;;;0.80;0.80;;;24.60;59.50;;;;;;4874507;29;20060;-78
2023/03/16 12:37:34;;;;;;;1.55;1.15;;;24.70;59.00;;;;;;4874528;29;20080;-82
2023/03/16 12:40:34;;;;;;;1.00;0.88;;;24.50;59.50;;;;;;4858905;29;20037;-78
2023/03/16 12:43:42;;;;;;;2.42;1.65;;;24.50;55.90;;;;;;4875592;29;20043;-76
2023/03/16 12:46:15;;;;;;;3.45;1.80;;;24.50;59.10;;;;;;4865203;29;20494;-76
2023/03/16 12:48:46;;;;;;;;;;;24.50;58.10;;;;;;4862637;29;20048;-80
2023/03/16 12:51:12;;;;;;;1.77;1.60;;;24.50;57.90;;;;;;4861069;29;19912;-76
2023/03/16 12:53:52;;;;;;;2.30;1.80;;;24.50;60.00;;;;;;4843669;29;20160;-78
2023/03/16 12:56:45;;;;;;;1.83;1.42;;;24.50;58.40;;;;;;4858921;29;20116;-79
2023/03/16 12:59:20;;;;;;;0.20;0.20;;;24.40;56.30;;;;;;4877699;29;20045;-75
2023/03/16 13:01:57;;;;;;;2.17;1.40;;;24.40;57.60;;;;;;4877725;29;20082;-73
2023/03/16 13:04:32;;;;;;;1.83;1.17;;;24.50;56.30;;;;;;4920401;29;20118;-75
2023/03/16 13:07:03;;;;;;;1.98;1.63;;;24.60;53.60;;;;;;4934182;29;20063;-78
2023/03/16 13:09:32;;;;;;;1.98;1.30;;;24.50;51.60;;;;;;4933921;29;20087;-78
2023/03/16 13:12:03;;;;;;;3.33;1.77;;;24.30;52.20;;;;;;4933972;29;20067;-76
2023/03/16 13:14:43;;;;;;;1.90;1.50;;;24.20;50.50;;;;;;4933996;29;20043;-78